createdAt,value
2018-12-15T00:02:54.515Z,98870.37
2018-12-15T00:05:57.852Z,98868.59
2018-12-15T00:09:01.151Z,98870.80
2018-12-15T00:12:04.405Z,98873.56
2018-12-15T00:15:08.028Z,98878.51
2018-12-15T00:18:11.260Z,98879.70
2018-12-15T00:21:14.522Z,98886.19
2018-12-15T00:24:17.942Z,98882.49
2018-12-15T00:27:21.243Z,98878.08
2018-12-15T00:30:24.457Z,98884.74
2018-12-15T00:33:27.834Z,98881.77
2018-12-15T00:36:31.065Z,98883.75
2018-12-15T00:39:34.323Z,98891.66
2018-12-15T00:42:37.537Z,98883.81
2018-12-15T00:45:40.788Z,98883.12
2018-12-15T00:48:44.019Z,98884.56
2018-12-15T00:51:47.251Z,98890.56
2018-12-15T00:54:50.484Z,98887.23
2018-12-15T00:57:53.707Z,98894.98
2018-12-15T01:00:56.953Z,98899.86
2018-12-15T01:04:00.249Z,98900.81
2018-12-15T01:07:03.582Z,98911.61
2018-12-15T01:10:06.892Z,98905.41
2018-12-15T01:13:10.185Z,98907.06
2018-12-15T01:16:13.408Z,98913.88
2018-12-15T01:19:16.678Z,98917.05
2018-12-15T01:22:19.980Z,98921.89
2018-12-15T01:25:23.232Z,98918.05
2018-12-15T01:28:26.453Z,98922.00
2018-12-15T01:31:29.768Z,98915.23
2018-12-15T01:34:32.997Z,98915.93
2018-12-15T01:37:36.260Z,98919.36
2018-12-15T01:40:39.521Z,98921.86
2018-12-15T01:43:43.061Z,98916.92
2018-12-15T01:46:46.388Z,98920.45
2018-12-15T01:49:49.650Z,98917.81
2018-12-15T01:52:52.929Z,98920.34
2018-12-15T01:55:56.177Z,98920.61
2018-12-15T01:58:59.550Z,98928.16
2018-12-15T02:02:02.940Z,98934.20
2018-12-15T02:05:06.249Z,98931.79
2018-12-15T02:08:09.471Z,98937.27
2018-12-15T02:11:12.837Z,98932.08
2018-12-15T02:14:16.097Z,98942.77
2018-12-15T02:17:19.428Z,98937.22
2018-12-15T02:20:22.659Z,98940.96
2018-12-15T02:23:25.924Z,98938.95
2018-12-15T02:26:29.140Z,98936.67
2018-12-15T02:29:32.445Z,98936.80
2018-12-15T02:32:35.695Z,98937.37
2018-12-15T02:35:38.956Z,98942.64
2018-12-15T02:38:42.165Z,98945.88
2018-12-15T02:41:47.370Z,98936.04
2018-12-15T02:44:50.639Z,98948.19
2018-12-15T02:47:53.994Z,98937.89
2018-12-15T02:50:57.235Z,98940.27
2018-12-15T02:54:00.487Z,98944.78
2018-12-15T02:57:03.823Z,98948.91
2018-12-15T03:00:07.326Z,98957.16
2018-12-15T03:03:10.533Z,98959.59
2018-12-15T03:06:13.760Z,98955.97
2018-12-15T03:09:16.996Z,98959.39
2018-12-15T03:12:20.263Z,98957.98
2018-12-15T03:15:23.530Z,98962.09
2018-12-15T03:18:26.802Z,98960.84
2018-12-15T03:21:30.012Z,98960.98
2018-12-15T03:24:33.246Z,98966.05
2018-12-15T03:27:36.578Z,98962.30
2018-12-15T03:30:39.931Z,98968.76
2018-12-15T03:33:43.287Z,98963.41
2018-12-15T03:36:46.499Z,98965.86
2018-12-15T03:39:49.853Z,98960.62
2018-12-15T03:42:53.056Z,98965.00
2018-12-15T03:45:56.375Z,98961.64
2018-12-15T03:48:59.577Z,98959.69
2018-12-15T03:52:02.809Z,98968.41
2018-12-15T03:55:06.079Z,98969.26
2018-12-15T03:58:09.359Z,98970.19
2018-12-15T04:01:12.725Z,98973.14
2018-12-15T04:04:16.030Z,98981.55
2018-12-15T04:07:19.352Z,98978.66
2018-12-15T04:10:22.584Z,98985.98
2018-12-15T04:13:25.849Z,98982.16
2018-12-15T04:16:29.234Z,98982.29
2018-12-15T04:19:32.545Z,98990.27
2018-12-15T04:22:35.815Z,98995.55
2018-12-15T04:25:39.022Z,98990.97
2018-12-15T04:28:42.371Z,98992.78
2018-12-15T04:31:45.625Z,98993.77
2018-12-15T04:34:48.850Z,98989.02
2018-12-15T04:37:52.173Z,98986.64
2018-12-15T04:40:55.518Z,98985.25
2018-12-15T04:43:59.074Z,98985.52
2018-12-15T04:47:02.837Z,98988.39
2018-12-15T04:50:06.108Z,98981.92
2018-12-15T04:53:09.341Z,98977.97
2018-12-15T04:56:12.564Z,98974.94
2018-12-15T04:59:15.813Z,98976.41
2018-12-15T05:02:19.072Z,98974.70
2018-12-15T05:05:22.301Z,98974.33
2018-12-15T05:08:25.520Z,98969.19
2018-12-15T05:11:28.795Z,98973.88
2018-12-15T05:14:32.094Z,98973.52
2018-12-15T05:17:35.341Z,98969.36
2018-12-15T05:20:38.549Z,98969.81
2018-12-15T05:23:41.773Z,98968.99
2018-12-15T05:26:45.008Z,98970.38
2018-12-15T05:29:48.277Z,98967.43
2018-12-15T05:32:51.588Z,98970.31
2018-12-15T05:35:54.838Z,98973.08
2018-12-15T05:38:58.052Z,98964.54
2018-12-15T05:42:01.339Z,98960.70
2018-12-15T05:45:05.925Z,98971.63
2018-12-15T05:48:09.156Z,98969.56
2018-12-15T05:51:12.385Z,98966.73
2018-12-15T05:54:15.608Z,98974.64
2018-12-15T05:57:18.977Z,98965.78
2018-12-15T06:00:22.280Z,98972.90
2018-12-15T06:03:25.515Z,98966.80
2018-12-15T06:06:28.862Z,98968.12
2018-12-15T06:09:32.071Z,98977.71
2018-12-15T06:12:35.304Z,98973.39
2018-12-15T06:15:38.672Z,98974.52
2018-12-15T06:18:41.892Z,98970.63
2018-12-15T06:21:45.141Z,98979.98
2018-12-15T06:24:48.402Z,98978.22
2018-12-15T06:27:51.721Z,98980.23
2018-12-15T06:30:55.037Z,98980.11
2018-12-15T06:33:58.281Z,98976.45
2018-12-15T06:37:01.521Z,98984.69
2018-12-15T06:40:06.768Z,98982.36
2018-12-15T06:43:10.067Z,98980.86
2018-12-15T06:46:13.363Z,98981.79
2018-12-15T06:49:16.565Z,98985.45
2018-12-15T06:52:19.805Z,98983.31
2018-12-15T06:55:23.049Z,98984.95
2018-12-15T06:58:26.261Z,98986.56
2018-12-15T07:01:29.494Z,98989.28
2018-12-15T07:04:32.720Z,98985.19
2018-12-15T07:07:35.999Z,98981.03
2018-12-15T07:10:39.309Z,98984.58
2018-12-15T07:13:42.537Z,98986.40
2018-12-15T07:16:45.780Z,98995.41
2018-12-15T07:19:49.017Z,98990.09
2018-12-15T07:22:52.233Z,98994.42
2018-12-15T07:25:55.508Z,98996.30
2018-12-15T07:28:58.722Z,98990.03
2018-12-15T07:32:01.983Z,98994.75
2018-12-15T07:35:05.262Z,98983.43
2018-12-15T07:38:08.584Z,98994.44
2018-12-15T07:41:11.929Z,98992.63
2018-12-15T07:44:15.194Z,98999.06
2018-12-15T07:47:18.589Z,99010.06
2018-12-15T07:50:21.800Z,98999.62
2018-12-15T07:53:25.080Z,99006.16
2018-12-15T07:56:28.327Z,98999.14
2018-12-15T07:59:31.583Z,99001.38
2018-12-15T08:02:34.827Z,99003.33
2018-12-15T08:05:38.060Z,99009.89
2018-12-15T08:08:41.299Z,99005.11
2018-12-15T08:11:49.984Z,99000.72
2018-12-15T08:14:53.185Z,99005.09
2018-12-15T08:17:56.485Z,99010.75
2018-12-15T08:20:59.708Z,99016.77
2018-12-15T08:24:02.969Z,99019.28
2018-12-15T08:27:06.228Z,99016.56
2018-12-15T08:30:10.861Z,99024.53
2018-12-15T08:33:14.190Z,99028.09
2018-12-15T08:36:17.487Z,99019.55
2018-12-15T08:39:21.432Z,99023.89
2018-12-15T08:42:24.668Z,99027.63
2018-12-15T08:45:27.916Z,99020.32
2018-12-15T08:48:31.153Z,99026.13
2018-12-15T08:51:34.689Z,99020.47
2018-12-15T08:54:37.956Z,99022.88
2018-12-15T08:57:41.289Z,99021.05
2018-12-15T09:00:44.579Z,99018.33
2018-12-15T09:03:47.797Z,99022.88
2018-12-15T09:06:51.174Z,99019.69
2018-12-15T09:09:54.380Z,99019.75
2018-12-15T09:12:57.705Z,99024.89
2018-12-15T09:16:01.065Z,99020.80
2018-12-15T09:19:04.331Z,99016.98
2018-12-15T09:22:11.390Z,99023.33
2018-12-15T09:25:12.853Z,99026.20
2018-12-15T09:28:16.088Z,99030.92
2018-12-15T09:31:19.399Z,99028.22
2018-12-15T09:34:22.693Z,99023.73
2018-12-15T09:37:25.905Z,99027.33
2018-12-15T09:40:29.179Z,99017.72
2018-12-15T09:43:32.466Z,99015.58
2018-12-15T09:46:35.778Z,99020.59
2018-12-15T09:49:39.074Z,99015.88
2018-12-15T09:52:42.311Z,99008.19
2018-12-15T09:55:45.567Z,99006.03
2018-12-15T09:58:48.824Z,99005.14
2018-12-15T10:01:52.057Z,99007.28
2018-12-15T10:04:55.355Z,99005.75
2018-12-15T10:07:58.652Z,98997.75
2018-12-15T10:11:01.913Z,98999.90
2018-12-15T10:14:05.248Z,99006.80
2018-12-15T10:17:09.007Z,99002.67
2018-12-15T10:20:12.424Z,98992.97
2018-12-15T10:23:15.751Z,98993.30
2018-12-15T10:26:19.052Z,98989.13
2018-12-15T10:33:00.481Z,98978.86
2018-12-15T10:36:03.763Z,98977.24
2018-12-15T10:39:08.434Z,98979.20
2018-12-15T10:42:11.682Z,98968.77
2018-12-15T10:45:14.953Z,98975.80
2018-12-15T10:48:18.276Z,98976.49
2018-12-15T10:51:21.505Z,98983.84
2018-12-15T10:54:24.756Z,98979.48
2018-12-15T10:57:28.048Z,98978.01
2018-12-15T11:00:36.736Z,98972.27
2018-12-15T11:03:39.960Z,98972.97
2018-12-15T11:06:43.209Z,98973.91
2018-12-15T11:09:46.436Z,98970.44
2018-12-15T11:12:49.736Z,98963.06
2018-12-15T11:15:52.974Z,98965.13
2018-12-15T11:18:56.298Z,98961.55
2018-12-15T11:21:59.532Z,98951.63
2018-12-15T11:25:02.781Z,98951.45
2018-12-15T11:28:06.024Z,98943.68
2018-12-15T11:31:09.289Z,98942.48
2018-12-15T11:34:12.527Z,98942.44
2018-12-15T11:37:15.776Z,98955.77
2018-12-15T11:40:19.054Z,98944.25
2018-12-15T11:43:22.297Z,98940.89
2018-12-15T11:46:25.548Z,98936.39
2018-12-15T11:49:28.865Z,98928.33
2018-12-15T11:52:32.089Z,98927.13
2018-12-15T11:55:35.348Z,98919.50
2018-12-15T11:58:38.604Z,98917.48
2018-12-15T12:01:41.836Z,98912.92
2018-12-15T12:04:45.065Z,98904.52
2018-12-15T12:07:48.319Z,98905.14
2018-12-15T12:10:51.553Z,98898.92
2018-12-15T12:14:00.332Z,98895.98
2018-12-15T12:16:59.998Z,98893.52
2018-12-15T12:20:06.306Z,98894.77
2018-12-15T12:23:09.524Z,98894.07
2018-12-15T12:26:12.786Z,98878.50
2018-12-15T12:29:16.001Z,98888.78
2018-12-15T12:32:19.223Z,98898.64
2018-12-15T12:35:22.492Z,98893.50
2018-12-15T12:38:25.720Z,98899.60
2018-12-15T12:41:28.960Z,98891.47
2018-12-15T12:44:32.272Z,98895.66
2018-12-15T12:47:35.499Z,98886.67
2018-12-15T12:50:38.753Z,98890.11
2018-12-15T12:53:42.024Z,98894.09
2018-12-15T12:56:45.269Z,98890.75
2018-12-15T12:59:48.500Z,98895.73
2018-12-15T13:02:51.724Z,98894.04
2018-12-15T13:05:54.972Z,98886.11
2018-12-15T13:08:58.200Z,98882.51
2018-12-15T13:12:01.432Z,98881.31
2018-12-15T13:15:05.676Z,98872.13
2018-12-15T13:18:09.013Z,98872.66
2018-12-15T13:21:12.350Z,98876.71
2018-12-15T13:24:15.943Z,98867.97
2018-12-15T13:27:19.204Z,98870.95
2018-12-15T13:30:23.000Z,98867.83
2018-12-15T13:33:33.521Z,98862.30
2018-12-15T13:36:36.804Z,98865.19
2018-12-15T13:39:40.096Z,98864.27
2018-12-15T13:42:43.376Z,98873.38
2018-12-15T13:45:46.703Z,98870.67
2018-12-15T13:48:49.972Z,98870.79
2018-12-15T13:51:53.219Z,98872.91
2018-12-15T13:54:56.456Z,98870.97
2018-12-15T13:57:59.673Z,98874.70
2018-12-15T14:01:02.901Z,98869.83
2018-12-15T14:04:06.120Z,98865.91
2018-12-15T14:07:09.368Z,98872.31
2018-12-15T14:10:12.884Z,98868.28
2018-12-15T14:13:16.116Z,98880.70
2018-12-15T14:16:19.485Z,98876.45
2018-12-15T14:19:22.687Z,98877.08
2018-12-15T14:22:25.972Z,98872.65
2018-12-15T14:25:29.184Z,98874.21
2018-12-15T14:28:32.523Z,98874.85
2018-12-15T14:31:35.805Z,98867.59
2018-12-15T14:34:39.042Z,98871.75
2018-12-15T14:37:42.268Z,98872.45
2018-12-15T14:40:45.521Z,98876.62
2018-12-15T14:43:48.749Z,98874.36
2018-12-15T14:46:52.042Z,98870.95
2018-12-15T14:49:55.255Z,98868.80
2018-12-15T14:52:58.535Z,98871.03
2018-12-15T14:56:01.744Z,98868.80
2018-12-15T14:59:04.965Z,98866.23
2018-12-15T15:02:08.285Z,98869.56
2018-12-15T15:05:11.537Z,98862.27
2018-12-15T15:08:14.813Z,98856.28
2018-12-15T15:11:18.052Z,98861.58
2018-12-15T15:14:21.280Z,98851.02
2018-12-15T15:17:24.605Z,98853.57
2018-12-15T15:20:29.875Z,98851.04
2018-12-15T15:23:33.045Z,98847.43
2018-12-15T15:26:36.368Z,98848.63
2018-12-15T15:29:39.600Z,98841.81
2018-12-15T15:32:42.930Z,98841.72
2018-12-15T15:35:46.150Z,98842.34
2018-12-15T15:38:49.424Z,98829.72
2018-12-15T15:41:52.782Z,98828.21
2018-12-15T15:44:56.021Z,98824.03
2018-12-15T15:47:59.416Z,98824.58
2018-12-15T15:51:02.626Z,98820.20
2018-12-15T15:54:05.999Z,98818.19
2018-12-15T15:57:09.235Z,98817.56
2018-12-15T16:00:12.593Z,98816.18
2018-12-15T16:03:15.825Z,98811.86
2018-12-15T16:06:19.102Z,98808.35
2018-12-15T16:09:22.364Z,98814.16
2018-12-15T16:12:25.701Z,98813.39
2018-12-15T16:15:29.092Z,98812.39
2018-12-15T16:18:32.305Z,98808.81
2018-12-15T16:21:35.536Z,98809.04
2018-12-15T16:24:38.833Z,98795.27
2018-12-15T16:27:42.109Z,98788.09
2018-12-15T16:30:45.357Z,98787.58
2018-12-15T16:33:48.633Z,98792.57
2018-12-15T16:36:51.965Z,98781.47
2018-12-15T16:39:55.193Z,98782.09
2018-12-15T16:42:58.457Z,98775.34
2018-12-15T16:46:01.694Z,98788.04
2018-12-15T16:49:06.103Z,98786.27
2018-12-15T16:52:09.496Z,98787.38
2018-12-15T16:55:13.118Z,98779.81
2018-12-15T16:58:16.479Z,98777.39
2018-12-15T17:01:19.743Z,98771.80
2018-12-15T17:04:23.051Z,98776.30
2018-12-15T17:07:26.281Z,98782.28
2018-12-15T17:10:29.564Z,98776.50
2018-12-15T17:13:32.810Z,98766.24
2018-12-15T17:16:36.057Z,98764.50
2018-12-15T17:19:39.264Z,98757.34
2018-12-15T17:22:42.548Z,98762.91
2018-12-15T17:25:45.808Z,98755.97
2018-12-15T17:28:49.146Z,98746.48
2018-12-15T17:31:52.360Z,98732.75
2018-12-15T17:34:55.679Z,98742.30
2018-12-15T17:37:58.952Z,98748.08
2018-12-15T17:41:02.231Z,98749.63
2018-12-15T17:44:05.526Z,98748.11
2018-12-15T17:47:08.762Z,98740.55
2018-12-15T17:50:12.060Z,98739.77
2018-12-15T17:53:15.338Z,98736.02
2018-12-15T17:56:18.575Z,98731.38
2018-12-15T17:59:21.797Z,98724.01
2018-12-15T18:02:25.104Z,98729.55
2018-12-15T18:05:28.337Z,98721.95
2018-12-15T18:08:31.588Z,98715.52
2018-12-15T18:11:34.814Z,98705.58
2018-12-15T18:14:38.087Z,98706.74
2018-12-15T18:17:41.305Z,98700.39
2018-12-15T18:20:44.589Z,98695.72
2018-12-15T18:23:47.840Z,98688.39
2018-12-15T18:26:51.112Z,98691.27
2018-12-15T18:29:54.342Z,98684.48
2018-12-15T18:32:57.577Z,98678.38
2018-12-15T18:36:00.824Z,98668.94
2018-12-15T18:39:06.801Z,98663.38
2018-12-15T18:42:10.939Z,98659.62
2018-12-15T18:45:14.424Z,98658.25
2018-12-15T18:48:17.671Z,98647.73
2018-12-15T18:51:20.933Z,98645.08
2018-12-15T18:54:24.200Z,98639.87
2018-12-15T18:57:27.472Z,98642.46
2018-12-15T19:00:30.700Z,98646.57
2018-12-15T19:03:33.934Z,98644.55
2018-12-15T19:06:37.225Z,98635.30
2018-12-15T19:09:40.452Z,98637.69
2018-12-15T19:12:43.702Z,98632.99
2018-12-15T19:15:46.932Z,98622.98
2018-12-15T19:18:50.195Z,98619.16
2018-12-15T19:21:53.427Z,98616.11
2018-12-15T19:24:56.776Z,98610.27
2018-12-15T19:28:00.005Z,98607.48
2018-12-15T19:31:03.282Z,98603.08
2018-12-15T19:34:06.492Z,98599.03
2018-12-15T19:37:09.750Z,98592.86
2018-12-15T19:40:13.035Z,98590.66
2018-12-15T19:43:16.279Z,98590.48
2018-12-15T19:46:19.525Z,98577.06
2018-12-15T19:49:22.759Z,98575.32
2018-12-15T19:52:26.087Z,98571.77
2018-12-15T19:55:29.340Z,98564.07
2018-12-15T19:58:32.578Z,98563.05
2018-12-15T20:01:35.825Z,98558.77
2018-12-15T20:04:39.062Z,98557.71
2018-12-15T20:07:42.304Z,98551.57
2018-12-15T20:10:45.583Z,98543.78
2018-12-15T20:13:48.837Z,98545.45
2018-12-15T20:16:52.112Z,98543.52
2018-12-15T20:19:55.388Z,98539.30
2018-12-15T20:22:58.665Z,98542.70
2018-12-15T20:26:01.892Z,98533.53
2018-12-15T20:29:05.212Z,98529.59
2018-12-15T20:32:08.456Z,98529.11
2018-12-15T20:35:11.701Z,98524.55
2018-12-15T20:38:14.933Z,98518.84
2018-12-15T20:41:19.284Z,98514.41
2018-12-15T20:44:22.820Z,98515.73
2018-12-15T20:47:27.937Z,98511.63
2018-12-15T20:50:31.319Z,98497.45
2018-12-15T20:53:34.577Z,98497.88
2018-12-15T20:56:37.835Z,98504.25
2018-12-15T20:59:41.168Z,98499.88
2018-12-15T21:02:44.517Z,98491.81
2018-12-15T21:05:48.156Z,98487.78
2018-12-15T21:08:51.717Z,98480.97
2018-12-15T21:11:55.263Z,98480.48
2018-12-15T21:15:00.817Z,98479.05
2018-12-15T21:18:04.273Z,98470.58
2018-12-15T21:21:07.755Z,98476.31
2018-12-15T21:24:11.179Z,98474.53
2018-12-15T21:27:14.414Z,98463.78
2018-12-15T21:30:17.751Z,98457.65
2018-12-15T21:33:21.219Z,98446.30
2018-12-15T21:36:24.631Z,98436.44
2018-12-15T21:39:28.278Z,98429.54
2018-12-15T21:42:31.803Z,98415.95
2018-12-15T21:45:35.620Z,98423.61
2018-12-15T21:48:38.975Z,98418.77
2018-12-15T21:51:42.634Z,98402.16
2018-12-15T21:54:45.896Z,98410.98
2018-12-15T21:57:49.412Z,98407.54
2018-12-15T22:00:52.817Z,98407.54
2018-12-15T22:03:56.546Z,98403.66
2018-12-15T22:07:00.207Z,98400.28
2018-12-15T22:10:04.282Z,98388.45
2018-12-15T22:13:07.552Z,98382.50
2018-12-15T22:19:31.466Z,98386.84
2018-12-15T22:22:35.660Z,98377.25
2018-12-15T22:25:39.019Z,98377.77
2018-12-15T22:28:42.459Z,98379.28
2018-12-15T22:31:45.777Z,98368.69
2018-12-15T22:34:49.389Z,98361.47
2018-12-15T22:37:52.866Z,98355.77
2018-12-15T22:40:56.513Z,98345.39
2018-12-15T22:44:00.193Z,98343.31
2018-12-15T22:47:03.591Z,98328.16
2018-12-15T22:50:07.471Z,98328.61
2018-12-15T22:53:11.151Z,98318.89
2018-12-15T22:56:14.564Z,98305.05
2018-12-15T22:59:17.898Z,98305.88
2018-12-15T23:02:21.137Z,98295.83
2018-12-15T23:05:24.409Z,98284.35
2018-12-15T23:08:27.649Z,98283.12
2018-12-15T23:11:30.993Z,98273.91
2018-12-15T23:14:34.259Z,98260.86
2018-12-15T23:17:37.516Z,98258.76
2018-12-15T23:20:40.814Z,98244.30
2018-12-15T23:23:44.068Z,98246.31
2018-12-15T23:26:47.366Z,98240.03
2018-12-15T23:29:50.588Z,98230.27
2018-12-15T23:32:53.892Z,98228.47
2018-12-15T23:35:57.128Z,98222.92
2018-12-15T23:39:00.409Z,98218.19
2018-12-15T23:42:03.751Z,98217.33
2018-12-15T23:45:07.353Z,98218.20
2018-12-15T23:48:10.597Z,98216.92
2018-12-15T23:51:13.929Z,98205.00
2018-12-15T23:54:17.164Z,98202.37
2018-12-15T23:57:20.413Z,98190.74
